Pagrindinis puslapis
METAR-TAF:

METAR-TAF

Oro uostai :

Ubonratčathanis, Tailandas

platuma: 15-15N, ilguma: 104-52E, Aukštis: 123 m

Dabartinis oras

Ataskaita buvo paskelbta 20 minutes, ne 14:00 UTC
Vėjas 9 kt iš Šiaurės/Šiaurės Rytų
Temperatūra 24°C
Drėgmė 74%
Slėgis 1014 hPa
Matomumas 10 km arba daugiau
nėra debesų žemiau 1500 m ir nėra kamuolinių lietaus debesų

METAR: VTUU 201400Z 02009KT CAVOK 24/19 Q1014 NOSIG

Laikas: 21:20 (14:20 UTC)

Prognozė

Ataskaita buvo paskelbta 3 valandos ir 20 minutes, ne 11:00 UTC
Prognozė galioja nuo 20 metu 12 UTC su 21 metu 12 UTC
Vėjas 10 kt iš Šiaurės/Šiaurės Rytų
Matomumas: 9000 m

TAF: VTUU 201100Z 2012/2112 03010KT 9000 NSC

Orai ataskaitas ir orų prognozės (METAR, TAF).

turimą stotys yra geltonos ir raudonos taškus žemėlapyje.

Perkelti pele per norėdami pamatyti stoties vardą.

Tada spustelėkite, norėdami matyti oro stebėjimo ir prognozės.

Norėdami pakeisti žemėlapį: spustelėkite ant žalios mygtukų su juodo kryžiaus žemyn,; žalią mygtuką su brūkšneliu, jei norite nutolinti; arba žalių rodyklių gretimoms žemėlapius.


METAR-TAF: